sensor_id;sensor_type;location;lat;lon;timestamp;temperature;humidity
40516;DHT22;26216;53.724;9.898;2023-01-28T00:00:34;3.80;99.10
40516;DHT22;26216;53.724;9.898;2023-01-28T00:03:00;3.80;99.10
40516;DHT22;26216;53.724;9.898;2023-01-28T00:05:26;3.80;99.20
40516;DHT22;26216;53.724;9.898;2023-01-28T00:07:57;3.80;99.20
40516;DHT22;26216;53.724;9.898;2023-01-28T00:10:23;3.80;99.30
40516;DHT22;26216;53.724;9.898;2023-01-28T00:12:49;3.80;99.30
40516;DHT22;26216;53.724;9.898;2023-01-28T00:15:15;3.90;99.40
40516;DHT22;26216;53.724;9.898;2023-01-28T00:17:41;3.90;99.40
40516;DHT22;26216;53.724;9.898;2023-01-28T00:20:07;3.90;99.20
40516;DHT22;26216;53.724;9.898;2023-01-28T00:22:33;3.90;99.10
40516;DHT22;26216;53.724;9.898;2023-01-28T00:24:59;3.90;99.20
40516;DHT22;26216;53.724;9.898;2023-01-28T00:27:25;3.90;99.20
40516;DHT22;26216;53.724;9.898;2023-01-28T00:29:50;3.80;99.20
40516;DHT22;26216;53.724;9.898;2023-01-28T00:32:18;3.90;99.20
40516;DHT22;26216;53.724;9.898;2023-01-28T00:34:44;3.90;99.30
40516;DHT22;26216;53.724;9.898;2023-01-28T00:37:10;3.90;99.30
40516;DHT22;26216;53.724;9.898;2023-01-28T00:39:35;3.90;99.30
40516;DHT22;26216;53.724;9.898;2023-01-28T00:42:01;3.90;99.40
40516;DHT22;26216;53.724;9.898;2023-01-28T00:44:27;3.90;99.40
40516;DHT22;26216;53.724;9.898;2023-01-28T00:46:53;3.90;99.30
40516;DHT22;26216;53.724;9.898;2023-01-28T00:49:18;4.00;99.30
40516;DHT22;26216;53.724;9.898;2023-01-28T00:51:44;3.90;99.20
40516;DHT22;26216;53.724;9.898;2023-01-28T00:54:11;3.90;99.40
40516;DHT22;26216;53.724;9.898;2023-01-28T00:56:39;3.90;99.10
40516;DHT22;26216;53.724;9.898;2023-01-28T00:59:04;3.90;99.20
40516;DHT22;26216;53.724;9.898;2023-01-28T01:01:30;3.90;99.20
40516;DHT22;26216;53.724;9.898;2023-01-28T01:03:56;3.90;99.30
40516;DHT22;26216;53.724;9.898;2023-01-28T01:06:31;3.80;99.30
40516;DHT22;26216;53.724;9.898;2023-01-28T01:08:58;3.80;99.30
40516;DHT22;26216;53.724;9.898;2023-01-28T01:11:24;3.80;99.30
40516;DHT22;26216;53.724;9.898;2023-01-28T01:13:55;3.80;99.30
40516;DHT22;26216;53.724;9.898;2023-01-28T01:16:24;3.80;99.30
40516;DHT22;26216;53.724;9.898;2023-01-28T01:18:52;3.80;99.30
40516;DHT22;26216;53.724;9.898;2023-01-28T01:21:21;3.80;99.30
40516;DHT22;26216;53.724;9.898;2023-01-28T01:23:47;3.80;99.30
40516;DHT22;26216;53.724;9.898;2023-01-28T01:26:14;3.80;99.20
40516;DHT22;26216;53.724;9.898;2023-01-28T01:28:40;3.80;99.30
40516;DHT22;26216;53.724;9.898;2023-01-28T01:31:15;3.80;99.30
40516;DHT22;26216;53.724;9.898;2023-01-28T01:33:43;3.70;99.30
40516;DHT22;26216;53.724;9.898;2023-01-28T01:36:10;3.70;99.40
40516;DHT22;26216;53.724;9.898;2023-01-28T01:38:36;3.70;99.40
40516;DHT22;26216;53.724;9.898;2023-01-28T01:41:04;3.70;99.40
40516;DHT22;26216;53.724;9.898;2023-01-28T01:43:50;3.70;99.40
40516;DHT22;26216;53.724;9.898;2023-01-28T01:46:32;3.70;99.40
40516;DHT22;26216;53.724;9.898;2023-01-28T01:49:07;3.70;99.30
40516;DHT22;26216;53.724;9.898;2023-01-28T01:51:36;3.70;99.30
40516;DHT22;26216;53.724;9.898;2023-01-28T01:54:03;3.70;99.30
40516;DHT22;26216;53.724;9.898;2023-01-28T01:56:33;3.70;99.30
40516;DHT22;26216;53.724;9.898;2023-01-28T01:59:00;3.70;99.40
40516;DHT22;26216;53.724;9.898;2023-01-28T02:01:28;3.70;99.30
40516;DHT22;26216;53.724;9.898;2023-01-28T02:04:26;3.70;99.30
40516;DHT22;26216;53.724;9.898;2023-01-28T02:06:54;3.70;99.30
40516;DHT22;26216;53.724;9.898;2023-01-28T02:09:22;3.70;99.20
40516;DHT22;26216;53.724;9.898;2023-01-28T02:11:48;3.70;99.20
40516;DHT22;26216;53.724;9.898;2023-01-28T02:14:14;3.60;99.20
40516;DHT22;26216;53.724;9.898;2023-01-28T02:16:40;3.60;99.20
40516;DHT22;26216;53.724;9.898;2023-01-28T02:19:07;3.60;99.30
40516;DHT22;26216;53.724;9.898;2023-01-28T02:22:19;3.60;99.30
40516;DHT22;26216;53.724;9.898;2023-01-28T02:25:10;3.60;99.40
40516;DHT22;26216;53.724;9.898;2023-01-28T02:30:41;3.60;99.40
40516;DHT22;26216;53.724;9.898;2023-01-28T02:33:19;3.60;99.40
40516;DHT22;26216;53.724;9.898;2023-01-28T02:35:53;3.60;99.40
40516;DHT22;26216;53.724;9.898;2023-01-28T02:38:25;3.60;99.40
40516;DHT22;26216;53.724;9.898;2023-01-28T02:41:06;3.60;99.50
40516;DHT22;26216;53.724;9.898;2023-01-28T02:43:37;3.60;99.50
40516;DHT22;26216;53.724;9.898;2023-01-28T02:46:17;3.60;99.50
40516;DHT22;26216;53.724;9.898;2023-01-28T02:49:05;3.60;99.50
40516;DHT22;26216;53.724;9.898;2023-01-28T02:55:02;3.60;99.60
40516;DHT22;26216;53.724;9.898;2023-01-28T02:57:41;3.60;99.60
40516;DHT22;26216;53.724;9.898;2023-01-28T03:06:07;3.50;99.40
40516;DHT22;26216;53.724;9.898;2023-01-28T03:11:30;3.50;99.40
40516;DHT22;26216;53.724;9.898;2023-01-28T03:14:16;3.50;99.30
40516;DHT22;26216;53.724;9.898;2023-01-28T03:17:03;3.50;99.30
40516;DHT22;26216;53.724;9.898;2023-01-28T03:19:48;3.50;99.30
40516;DHT22;26216;53.724;9.898;2023-01-28T03:22:36;3.40;99.20
40516;DHT22;26216;53.724;9.898;2023-01-28T03:25:25;3.40;99.10
40516;DHT22;26216;53.724;9.898;2023-01-28T03:28:12;3.40;99.10
40516;DHT22;26216;53.724;9.898;2023-01-28T03:31:16;3.40;99.10
40516;DHT22;26216;53.724;9.898;2023-01-28T03:34:03;3.40;99.10
40516;DHT22;26216;53.724;9.898;2023-01-28T03:36:48;3.30;99.00
40516;DHT22;26216;53.724;9.898;2023-01-28T03:39:26;3.30;99.00
40516;DHT22;26216;53.724;9.898;2023-01-28T03:42:10;3.30;99.00
40516;DHT22;26216;53.724;9.898;2023-01-28T03:44:36;3.30;99.10
40516;DHT22;26216;53.724;9.898;2023-01-28T03:47:19;3.20;99.00
40516;DHT22;26216;53.724;9.898;2023-01-28T03:49:49;3.30;99.00
40516;DHT22;26216;53.724;9.898;2023-01-28T03:52:20;3.20;99.00
40516;DHT22;26216;53.724;9.898;2023-01-28T03:54:46;3.20;99.00
40516;DHT22;26216;53.724;9.898;2023-01-28T03:57:16;3.20;99.10
40516;DHT22;26216;53.724;9.898;2023-01-28T03:59:43;3.20;99.10
40516;DHT22;26216;53.724;9.898;2023-01-28T04:02:10;3.20;99.20
40516;DHT22;26216;53.724;9.898;2023-01-28T04:04:37;3.20;99.20
40516;DHT22;26216;53.724;9.898;2023-01-28T04:07:05;3.20;99.20
40516;DHT22;26216;53.724;9.898;2023-01-28T04:09:34;3.10;99.20
40516;DHT22;26216;53.724;9.898;2023-01-28T04:12:03;3.10;99.20
40516;DHT22;26216;53.724;9.898;2023-01-28T04:14:30;3.10;99.10
40516;DHT22;26216;53.724;9.898;2023-01-28T04:16:57;3.10;99.10
40516;DHT22;26216;53.724;9.898;2023-01-28T04:19:23;3.00;99.00
40516;DHT22;26216;53.724;9.898;2023-01-28T04:21:49;3.00;99.00
40516;DHT22;26216;53.724;9.898;2023-01-28T04:24:16;3.00;99.00
40516;DHT22;26216;53.724;9.898;2023-01-28T04:26:42;3.00;99.00
40516;DHT22;26216;53.724;9.898;2023-01-28T04:29:08;2.90;98.90
40516;DHT22;26216;53.724;9.898;2023-01-28T04:31:34;2.90;99.00
40516;DHT22;26216;53.724;9.898;2023-01-28T04:33:59;2.80;98.90
40516;DHT22;26216;53.724;9.898;2023-01-28T04:36:26;2.80;99.00
40516;DHT22;26216;53.724;9.898;2023-01-28T04:38:52;2.80;99.00
40516;DHT22;26216;53.724;9.898;2023-01-28T04:41:18;2.70;98.90
40516;DHT22;26216;53.724;9.898;2023-01-28T04:43:44;2.70;98.90
40516;DHT22;26216;53.724;9.898;2023-01-28T04:46:10;2.70;98.90
40516;DHT22;26216;53.724;9.898;2023-01-28T04:48:36;2.60;98.90
40516;DHT22;26216;53.724;9.898;2023-01-28T04:51:03;2.60;98.90
40516;DHT22;26216;53.724;9.898;2023-01-28T04:53:29;2.50;98.90
40516;DHT22;26216;53.724;9.898;2023-01-28T04:55:56;2.50;99.00
40516;DHT22;26216;53.724;9.898;2023-01-28T04:58:22;2.50;99.00
40516;DHT22;26216;53.724;9.898;2023-01-28T05:00:55;2.40;99.00
40516;DHT22;26216;53.724;9.898;2023-01-28T05:03:23;2.40;99.00
40516;DHT22;26216;53.724;9.898;2023-01-28T05:05:49;2.40;99.00
40516;DHT22;26216;53.724;9.898;2023-01-28T05:08:15;2.40;99.00
40516;DHT22;26216;53.724;9.898;2023-01-28T05:10:41;2.30;99.00
40516;DHT22;26216;53.724;9.898;2023-01-28T05:13:07;2.30;99.00
40516;DHT22;26216;53.724;9.898;2023-01-28T05:15:33;2.30;99.00
40516;DHT22;26216;53.724;9.898;2023-01-28T05:17:59;2.20;99.00
40516;DHT22;26216;53.724;9.898;2023-01-28T05:20:25;2.20;99.00
40516;DHT22;26216;53.724;9.898;2023-01-28T05:22:51;2.20;99.00
40516;DHT22;26216;53.724;9.898;2023-01-28T05:25:17;2.10;99.00
40516;DHT22;26216;53.724;9.898;2023-01-28T05:27:47;2.10;99.00
40516;DHT22;26216;53.724;9.898;2023-01-28T05:30:13;2.10;99.10
40516;DHT22;26216;53.724;9.898;2023-01-28T05:32:41;2.10;99.00
40516;DHT22;26216;53.724;9.898;2023-01-28T05:35:07;2.10;99.00
40516;DHT22;26216;53.724;9.898;2023-01-28T05:37:33;2.10;99.00
40516;DHT22;26216;53.724;9.898;2023-01-28T05:39:58;2.00;99.00
40516;DHT22;26216;53.724;9.898;2023-01-28T05:42:24;2.00;99.00
40516;DHT22;26216;53.724;9.898;2023-01-28T05:44:50;2.00;99.00
40516;DHT22;26216;53.724;9.898;2023-01-28T05:47:16;2.00;99.10
40516;DHT22;26216;53.724;9.898;2023-01-28T05:49:42;2.00;99.10
40516;DHT22;26216;53.724;9.898;2023-01-28T05:52:08;1.90;99.00
40516;DHT22;26216;53.724;9.898;2023-01-28T05:54:33;1.90;99.00
40516;DHT22;26216;53.724;9.898;2023-01-28T05:56:59;1.90;99.00
40516;DHT22;26216;53.724;9.898;2023-01-28T05:59:25;1.80;99.10
40516;DHT22;26216;53.724;9.898;2023-01-28T06:01:51;1.90;99.10
40516;DHT22;26216;53.724;9.898;2023-01-28T06:04:16;1.80;99.10
40516;DHT22;26216;53.724;9.898;2023-01-28T06:06:45;1.80;99.10
40516;DHT22;26216;53.724;9.898;2023-01-28T06:09:10;1.80;99.20
40516;DHT22;26216;53.724;9.898;2023-01-28T06:11:36;1.80;99.20
40516;DHT22;26216;53.724;9.898;2023-01-28T06:14:02;1.70;99.20
40516;DHT22;26216;53.724;9.898;2023-01-28T06:16:28;1.70;99.20
40516;DHT22;26216;53.724;9.898;2023-01-28T06:18:54;1.80;99.30
40516;DHT22;26216;53.724;9.898;2023-01-28T06:21:19;1.70;99.20
40516;DHT22;26216;53.724;9.898;2023-01-28T06:23:45;1.70;99.30
40516;DHT22;26216;53.724;9.898;2023-01-28T06:26:11;1.70;99.30
40516;DHT22;26216;53.724;9.898;2023-01-28T06:28:37;1.70;99.30
40516;DHT22;26216;53.724;9.898;2023-01-28T06:31:03;1.70;99.20
40516;DHT22;26216;53.724;9.898;2023-01-28T06:33:29;1.70;99.20
40516;DHT22;26216;53.724;9.898;2023-01-28T06:35:55;1.70;99.20
40516;DHT22;26216;53.724;9.898;2023-01-28T06:38:20;1.60;99.20
40516;DHT22;26216;53.724;9.898;2023-01-28T06:40:53;1.60;99.20
40516;DHT22;26216;53.724;9.898;2023-01-28T06:43:23;1.60;99.10
40516;DHT22;26216;53.724;9.898;2023-01-28T06:45:56;1.60;99.10
40516;DHT22;26216;53.724;9.898;2023-01-28T06:48:22;1.50;99.00
40516;DHT22;26216;53.724;9.898;2023-01-28T06:50:49;1.50;99.00
40516;DHT22;26216;53.724;9.898;2023-01-28T06:53:15;1.50;99.00
40516;DHT22;26216;53.724;9.898;2023-01-28T06:55:42;1.40;99.00
40516;DHT22;26216;53.724;9.898;2023-01-28T06:58:08;1.40;99.00
40516;DHT22;26216;53.724;9.898;2023-01-28T07:00:34;1.40;99.00
40516;DHT22;26216;53.724;9.898;2023-01-28T07:02:59;1.30;99.00
40516;DHT22;26216;53.724;9.898;2023-01-28T07:05:25;1.30;99.00
40516;DHT22;26216;53.724;9.898;2023-01-28T07:07:51;1.30;99.10
40516;DHT22;26216;53.724;9.898;2023-01-28T07:10:17;1.30;99.10
40516;DHT22;26216;53.724;9.898;2023-01-28T07:12:43;1.20;99.10
40516;DHT22;26216;53.724;9.898;2023-01-28T07:15:09;1.30;99.20
40516;DHT22;26216;53.724;9.898;2023-01-28T07:17:42;1.20;99.20
40516;DHT22;26216;53.724;9.898;2023-01-28T07:20:11;1.20;99.20
40516;DHT22;26216;53.724;9.898;2023-01-28T07:22:39;1.20;99.20
40516;DHT22;26216;53.724;9.898;2023-01-28T07:25:06;1.20;99.30
40516;DHT22;26216;53.724;9.898;2023-01-28T07:27:32;1.20;99.30
40516;DHT22;26216;53.724;9.898;2023-01-28T07:29:58;1.20;99.30
40516;DHT22;26216;53.724;9.898;2023-01-28T07:32:24;1.20;99.30
40516;DHT22;26216;53.724;9.898;2023-01-28T07:34:52;1.10;99.30
40516;DHT22;26216;53.724;9.898;2023-01-28T07:37:18;1.20;99.30
40516;DHT22;26216;53.724;9.898;2023-01-28T07:39:44;1.20;99.30
40516;DHT22;26216;53.724;9.898;2023-01-28T07:42:10;1.10;99.50
40516;DHT22;26216;53.724;9.898;2023-01-28T07:44:36;1.10;99.30
40516;DHT22;26216;53.724;9.898;2023-01-28T07:47:03;1.10;99.30
40516;DHT22;26216;53.724;9.898;2023-01-28T07:49:29;1.10;99.30
40516;DHT22;26216;53.724;9.898;2023-01-28T07:51:55;1.10;99.30
40516;DHT22;26216;53.724;9.898;2023-01-28T07:54:21;1.10;99.30
40516;DHT22;26216;53.724;9.898;2023-01-28T07:56:47;1.10;99.30
40516;DHT22;26216;53.724;9.898;2023-01-28T07:59:13;1.10;99.40
40516;DHT22;26216;53.724;9.898;2023-01-28T08:01:38;1.10;99.40
40516;DHT22;26216;53.724;9.898;2023-01-28T08:04:04;1.10;99.40
40516;DHT22;26216;53.724;9.898;2023-01-28T08:06:30;1.20;99.50
40516;DHT22;26216;53.724;9.898;2023-01-28T08:09:05;1.10;99.50
40516;DHT22;26216;53.724;9.898;2023-01-28T08:11:36;1.20;99.60
40516;DHT22;26216;53.724;9.898;2023-01-28T08:14:01;1.20;99.60
40516;DHT22;26216;53.724;9.898;2023-01-28T08:16:27;1.20;99.60
40516;DHT22;26216;53.724;9.898;2023-01-28T08:18:54;1.20;99.60
40516;DHT22;26216;53.724;9.898;2023-01-28T08:21:20;1.20;99.60
40516;DHT22;26216;53.724;9.898;2023-01-28T08:23:46;1.20;99.70
40516;DHT22;26216;53.724;9.898;2023-01-28T08:26:12;1.20;99.70
40516;DHT22;26216;53.724;9.898;2023-01-28T08:28:38;1.30;99.80
40516;DHT22;26216;53.724;9.898;2023-01-28T08:31:04;1.30;99.80
40516;DHT22;26216;53.724;9.898;2023-01-28T08:33:30;1.40;99.90
40516;DHT22;26216;53.724;9.898;2023-01-28T08:35:56;1.40;99.90
40516;DHT22;26216;53.724;9.898;2023-01-28T08:38:22;1.40;99.90
40516;DHT22;26216;53.724;9.898;2023-01-28T08:40:48;1.50;99.90
40516;DHT22;26216;53.724;9.898;2023-01-28T08:43:15;1.50;99.90
40516;DHT22;26216;53.724;9.898;2023-01-28T08:45:41;1.60;99.90
40516;DHT22;26216;53.724;9.898;2023-01-28T08:48:11;1.70;99.90
40516;DHT22;26216;53.724;9.898;2023-01-28T08:50:39;1.80;99.90
40516;DHT22;26216;53.724;9.898;2023-01-28T08:53:10;1.80;99.90
40516;DHT22;26216;53.724;9.898;2023-01-28T08:55:36;1.90;99.90
40516;DHT22;26216;53.724;9.898;2023-01-28T08:58:05;2.00;99.90
40516;DHT22;26216;53.724;9.898;2023-01-28T09:00:32;2.10;99.90
40516;DHT22;26216;53.724;9.898;2023-01-28T09:02:58;2.20;99.90
40516;DHT22;26216;53.724;9.898;2023-01-28T09:05:24;2.30;99.90
40516;DHT22;26216;53.724;9.898;2023-01-28T09:07:50;2.40;99.90
40516;DHT22;26216;53.724;9.898;2023-01-28T09:10:17;2.40;99.90
40516;DHT22;26216;53.724;9.898;2023-01-28T09:12:45;2.50;99.90
40516;DHT22;26216;53.724;9.898;2023-01-28T09:15:11;2.50;99.90
40516;DHT22;26216;53.724;9.898;2023-01-28T09:17:38;2.60;99.90
40516;DHT22;26216;53.724;9.898;2023-01-28T09:20:05;2.70;99.90
40516;DHT22;26216;53.724;9.898;2023-01-28T09:22:32;2.70;99.90
40516;DHT22;26216;53.724;9.898;2023-01-28T09:24:58;2.80;99.90
40516;DHT22;26216;53.724;9.898;2023-01-28T09:27:24;2.80;99.80
40516;DHT22;26216;53.724;9.898;2023-01-28T09:29:50;2.90;99.70
40516;DHT22;26216;53.724;9.898;2023-01-28T09:32:16;2.90;99.40
40516;DHT22;26216;53.724;9.898;2023-01-28T09:34:45;2.90;98.90
40516;DHT22;26216;53.724;9.898;2023-01-28T09:37:11;3.00;99.30
40516;DHT22;26216;53.724;9.898;2023-01-28T09:39:37;3.00;99.30
40516;DHT22;26216;53.724;9.898;2023-01-28T09:47:46;3.30;99.30
40516;DHT22;26216;53.724;9.898;2023-01-28T09:50:22;3.30;99.50
40516;DHT22;26216;53.724;9.898;2023-01-28T09:52:54;3.40;99.60
40516;DHT22;26216;53.724;9.898;2023-01-28T09:55:39;3.40;99.60
40516;DHT22;26216;53.724;9.898;2023-01-28T09:58:11;3.50;99.60
40516;DHT22;26216;53.724;9.898;2023-01-28T10:11:09;3.80;99.20
40516;DHT22;26216;53.724;9.898;2023-01-28T10:16:57;3.90;99.20
40516;DHT22;26216;53.724;9.898;2023-01-28T10:19:29;3.90;99.10
40516;DHT22;26216;53.724;9.898;2023-01-28T10:22:01;4.00;99.20
40516;DHT22;26216;53.724;9.898;2023-01-28T10:24:34;4.00;99.20
40516;DHT22;26216;53.724;9.898;2023-01-28T10:27:11;4.10;99.30
40516;DHT22;26216;53.724;9.898;2023-01-28T10:29:39;4.10;99.00
40516;DHT22;26216;53.724;9.898;2023-01-28T10:32:20;4.20;99.20
40516;DHT22;26216;53.724;9.898;2023-01-28T10:34:47;4.20;99.10
40516;DHT22;26216;53.724;9.898;2023-01-28T10:37:14;4.30;99.10
40516;DHT22;26216;53.724;9.898;2023-01-28T10:39:40;4.40;99.10
40516;DHT22;26216;53.724;9.898;2023-01-28T10:42:34;4.40;99.00
40516;DHT22;26216;53.724;9.898;2023-01-28T10:45:25;4.50;99.00
40516;DHT22;26216;53.724;9.898;2023-01-28T10:48:02;4.50;99.00
40516;DHT22;26216;53.724;9.898;2023-01-28T10:50:31;4.60;99.00
40516;DHT22;26216;53.724;9.898;2023-01-28T10:53:02;4.60;99.00
40516;DHT22;26216;53.724;9.898;2023-01-28T10:55:37;4.70;99.00
40516;DHT22;26216;53.724;9.898;2023-01-28T10:58:23;4.80;99.00
40516;DHT22;26216;53.724;9.898;2023-01-28T11:00:56;4.80;98.90
40516;DHT22;26216;53.724;9.898;2023-01-28T11:03:23;4.90;98.70
40516;DHT22;26216;53.724;9.898;2023-01-28T11:05:54;4.90;98.70
40516;DHT22;26216;53.724;9.898;2023-01-28T11:08:21;5.00;98.70
40516;DHT22;26216;53.724;9.898;2023-01-28T11:10:48;5.10;98.80
40516;DHT22;26216;53.724;9.898;2023-01-28T11:13:28;5.10;98.70
40516;DHT22;26216;53.724;9.898;2023-01-28T11:16:05;5.20;98.80
40516;DHT22;26216;53.724;9.898;2023-01-28T11:18:40;5.20;98.40
40516;DHT22;26216;53.724;9.898;2023-01-28T11:21:20;5.30;98.40
40516;DHT22;26216;53.724;9.898;2023-01-28T11:24:03;5.30;98.10
40516;DHT22;26216;53.724;9.898;2023-01-28T11:26:34;5.30;98.00
40516;DHT22;26216;53.724;9.898;2023-01-28T11:29:01;5.40;97.90
40516;DHT22;26216;53.724;9.898;2023-01-28T11:31:28;5.40;98.00
40516;DHT22;26216;53.724;9.898;2023-01-28T11:33:57;5.50;98.00
40516;DHT22;26216;53.724;9.898;2023-01-28T11:36:26;5.50;97.90
40516;DHT22;26216;53.724;9.898;2023-01-28T11:38:58;5.50;97.90
40516;DHT22;26216;53.724;9.898;2023-01-28T11:43:56;5.60;98.00
40516;DHT22;26216;53.724;9.898;2023-01-28T11:49:26;5.60;97.90
40516;DHT22;26216;53.724;9.898;2023-01-28T11:52:31;5.70;97.80
40516;DHT22;26216;53.724;9.898;2023-01-28T12:05:55;5.90;97.50
40516;DHT22;26216;53.724;9.898;2023-01-28T12:14:09;6.00;97.50
40516;DHT22;26216;53.724;9.898;2023-01-28T12:16:26;6.00;97.30
40516;DHT22;26216;53.724;9.898;2023-01-28T12:19:27;6.10;97.30
40516;DHT22;26216;53.724;9.898;2023-01-28T12:22:15;6.10;97.40
40516;DHT22;26216;53.724;9.898;2023-01-28T12:24:52;6.20;97.40
40516;DHT22;26216;53.724;9.898;2023-01-28T12:30:20;6.20;96.90
40516;DHT22;26216;53.724;9.898;2023-01-28T12:36:20;6.30;97.10
40516;DHT22;26216;53.724;9.898;2023-01-28T12:41:43;6.30;97.10
40516;DHT22;26216;53.724;9.898;2023-01-28T12:44:56;6.30;97.20
40516;DHT22;26216;53.724;9.898;2023-01-28T12:47:08;6.30;97.10
40516;DHT22;26216;53.724;9.898;2023-01-28T12:49:49;6.40;97.20
40516;DHT22;26216;53.724;9.898;2023-01-28T12:52:21;6.40;97.00
40516;DHT22;26216;53.724;9.898;2023-01-28T12:55:13;6.40;96.70
40516;DHT22;26216;53.724;9.898;2023-01-28T12:57:40;6.40;96.70
40516;DHT22;26216;53.724;9.898;2023-01-28T13:03:08;6.40;96.50
40516;DHT22;26216;53.724;9.898;2023-01-28T13:05:43;6.30;96.50
40516;DHT22;26216;53.724;9.898;2023-01-28T13:08:25;6.30;96.20
40516;DHT22;26216;53.724;9.898;2023-01-28T13:10:53;6.20;96.40
40516;DHT22;26216;53.724;9.898;2023-01-28T13:13:39;6.20;96.40
40516;DHT22;26216;53.724;9.898;2023-01-28T13:16:10;6.20;96.70
40516;DHT22;26216;53.724;9.898;2023-01-28T13:24:05;6.20;96.40
40516;DHT22;26216;53.724;9.898;2023-01-28T13:26:54;6.20;96.70
40516;DHT22;26216;53.724;9.898;2023-01-28T13:29:31;6.20;96.70
40516;DHT22;26216;53.724;9.898;2023-01-28T13:32:00;6.20;96.90
40516;DHT22;26216;53.724;9.898;2023-01-28T13:34:35;6.20;97.00
40516;DHT22;26216;53.724;9.898;2023-01-28T13:37:43;6.30;96.80
40516;DHT22;26216;53.724;9.898;2023-01-28T13:42:39;6.30;96.60
40516;DHT22;26216;53.724;9.898;2023-01-28T13:45:20;6.30;96.10
40516;DHT22;26216;53.724;9.898;2023-01-28T13:47:51;6.30;95.70
40516;DHT22;26216;53.724;9.898;2023-01-28T13:50:22;6.30;95.50
40516;DHT22;26216;53.724;9.898;2023-01-28T13:52:57;6.20;95.60
40516;DHT22;26216;53.724;9.898;2023-01-28T13:55:36;6.20;95.80
40516;DHT22;26216;53.724;9.898;2023-01-28T14:09:52;6.10;96.70
40516;DHT22;26216;53.724;9.898;2023-01-28T14:12:49;6.10;96.60
40516;DHT22;26216;53.724;9.898;2023-01-28T14:15:40;6.10;96.70
40516;DHT22;26216;53.724;9.898;2023-01-28T14:18:30;6.10;96.80
40516;DHT22;26216;53.724;9.898;2023-01-28T14:21:01;6.10;96.90
40516;DHT22;26216;53.724;9.898;2023-01-28T14:23:29;6.10;96.90
40516;DHT22;26216;53.724;9.898;2023-01-28T14:26:00;6.10;96.90
40516;DHT22;26216;53.724;9.898;2023-01-28T14:31:10;6.10;97.00
40516;DHT22;26216;53.724;9.898;2023-01-28T14:33:36;6.10;96.90
40516;DHT22;26216;53.724;9.898;2023-01-28T14:36:03;6.10;97.00
40516;DHT22;26216;53.724;9.898;2023-01-28T14:38:32;6.10;96.80
40516;DHT22;26216;53.724;9.898;2023-01-28T14:41:03;6.20;97.00
40516;DHT22;26216;53.724;9.898;2023-01-28T14:43:30;6.20;96.70
40516;DHT22;26216;53.724;9.898;2023-01-28T14:46:16;6.20;96.80
40516;DHT22;26216;53.724;9.898;2023-01-28T14:48:49;6.20;96.90
40516;DHT22;26216;53.724;9.898;2023-01-28T14:51:42;6.20;96.80
40516;DHT22;26216;53.724;9.898;2023-01-28T14:59:50;6.20;96.90
40516;DHT22;26216;53.724;9.898;2023-01-28T15:02:26;6.20;96.90
40516;DHT22;26216;53.724;9.898;2023-01-28T15:04:53;6.10;97.00
40516;DHT22;26216;53.724;9.898;2023-01-28T15:07:25;6.10;97.00
40516;DHT22;26216;53.724;9.898;2023-01-28T15:10:03;6.10;96.90
40516;DHT22;26216;53.724;9.898;2023-01-28T15:12:36;6.10;96.90
40516;DHT22;26216;53.724;9.898;2023-01-28T15:15:28;6.10;97.00
40516;DHT22;26216;53.724;9.898;2023-01-28T15:17:57;6.10;97.10
40516;DHT22;26216;53.724;9.898;2023-01-28T15:20:23;6.00;97.10
40516;DHT22;26216;53.724;9.898;2023-01-28T15:22:51;6.10;97.10
40516;DHT22;26216;53.724;9.898;2023-01-28T15:25:22;6.00;97.10
40516;DHT22;26216;53.724;9.898;2023-01-28T15:27:50;6.00;97.20
40516;DHT22;26216;53.724;9.898;2023-01-28T15:32:45;6.00;97.20
40516;DHT22;26216;53.724;9.898;2023-01-28T15:35:12;5.90;97.20
40516;DHT22;26216;53.724;9.898;2023-01-28T15:37:39;5.90;97.20
40516;DHT22;26216;53.724;9.898;2023-01-28T15:40:05;5.80;97.30
40516;DHT22;26216;53.724;9.898;2023-01-28T15:42:32;5.80;97.30
40516;DHT22;26216;53.724;9.898;2023-01-28T15:44:59;5.80;97.30
40516;DHT22;26216;53.724;9.898;2023-01-28T15:47:31;5.80;97.30
40516;DHT22;26216;53.724;9.898;2023-01-28T15:50:04;5.70;97.40
40516;DHT22;26216;53.724;9.898;2023-01-28T15:52:38;5.70;97.40
40516;DHT22;26216;53.724;9.898;2023-01-28T15:55:06;5.70;97.70
40516;DHT22;26216;53.724;9.898;2023-01-28T15:57:34;5.60;97.40
40516;DHT22;26216;53.724;9.898;2023-01-28T16:00:11;5.60;97.50
40516;DHT22;26216;53.724;9.898;2023-01-28T16:02:46;5.60;97.50
40516;DHT22;26216;53.724;9.898;2023-01-28T16:05:27;5.60;97.60
40516;DHT22;26216;53.724;9.898;2023-01-28T16:07:56;5.50;97.60
40516;DHT22;26216;53.724;9.898;2023-01-28T16:10:26;5.40;97.60
40516;DHT22;26216;53.724;9.898;2023-01-28T16:13:14;5.40;97.70
40516;DHT22;26216;53.724;9.898;2023-01-28T16:15:46;5.40;97.80
40516;DHT22;26216;53.724;9.898;2023-01-28T16:21:06;5.40;97.90
40516;DHT22;26216;53.724;9.898;2023-01-28T16:23:33;5.40;97.90
40516;DHT22;26216;53.724;9.898;2023-01-28T16:26:05;5.40;98.00
40516;DHT22;26216;53.724;9.898;2023-01-28T16:28:43;5.40;98.00
40516;DHT22;26216;53.724;9.898;2023-01-28T16:31:10;5.30;98.00
40516;DHT22;26216;53.724;9.898;2023-01-28T16:33:36;5.30;98.00
40516;DHT22;26216;53.724;9.898;2023-01-28T16:36:02;5.30;98.00
40516;DHT22;26216;53.724;9.898;2023-01-28T16:38:29;5.30;98.00
40516;DHT22;26216;53.724;9.898;2023-01-28T16:40:55;5.30;98.00
40516;DHT22;26216;53.724;9.898;2023-01-28T16:43:23;5.20;98.00
40516;DHT22;26216;53.724;9.898;2023-01-28T16:45:49;5.20;98.10
40516;DHT22;26216;53.724;9.898;2023-01-28T16:48:15;5.20;98.10
40516;DHT22;26216;53.724;9.898;2023-01-28T16:50:41;5.20;98.10
40516;DHT22;26216;53.724;9.898;2023-01-28T16:53:33;5.20;98.10
40516;DHT22;26216;53.724;9.898;2023-01-28T16:56:03;5.10;98.20
40516;DHT22;26216;53.724;9.898;2023-01-28T16:58:29;5.10;98.20
40516;DHT22;26216;53.724;9.898;2023-01-28T17:00:55;5.10;98.30
40516;DHT22;26216;53.724;9.898;2023-01-28T17:03:22;5.10;98.40
40516;DHT22;26216;53.724;9.898;2023-01-28T17:05:48;5.10;98.40
40516;DHT22;26216;53.724;9.898;2023-01-28T17:08:14;5.10;98.50
40516;DHT22;26216;53.724;9.898;2023-01-28T17:10:41;5.10;98.60
40516;DHT22;26216;53.724;9.898;2023-01-28T17:13:08;5.10;98.60
40516;DHT22;26216;53.724;9.898;2023-01-28T17:15:35;5.10;98.70
40516;DHT22;26216;53.724;9.898;2023-01-28T17:18:01;5.10;98.70
40516;DHT22;26216;53.724;9.898;2023-01-28T17:20:27;5.10;98.80
40516;DHT22;26216;53.724;9.898;2023-01-28T17:22:53;5.00;98.80
40516;DHT22;26216;53.724;9.898;2023-01-28T17:25:19;5.00;98.80
40516;DHT22;26216;53.724;9.898;2023-01-28T17:27:48;5.00;98.80
40516;DHT22;26216;53.724;9.898;2023-01-28T17:30:17;5.00;98.80
40516;DHT22;26216;53.724;9.898;2023-01-28T17:32:44;5.00;98.90
40516;DHT22;26216;53.724;9.898;2023-01-28T17:35:10;5.00;98.90
40516;DHT22;26216;53.724;9.898;2023-01-28T17:37:37;5.00;98.90
40516;DHT22;26216;53.724;9.898;2023-01-28T17:40:04;5.00;99.00
40516;DHT22;26216;53.724;9.898;2023-01-28T17:42:30;5.00;99.00
40516;DHT22;26216;53.724;9.898;2023-01-28T17:44:57;5.00;99.00
40516;DHT22;26216;53.724;9.898;2023-01-28T17:47:28;5.10;99.00